createdAt,value
2023-10-02T00:01:08.186Z,71.73
2023-10-02T00:03:42.600Z,71.76
2023-10-02T00:06:13.219Z,71.68
2023-10-02T00:08:50.056Z,71.75
2023-10-02T00:11:37.290Z,71.60
2023-10-02T00:14:27.295Z,71.51
2023-10-02T00:17:00.337Z,71.84
2023-10-02T00:19:38.841Z,71.81
2023-10-02T00:22:34.594Z,72.11
2023-10-02T00:25:09.353Z,71.72
2023-10-02T00:27:38.368Z,72.30
2023-10-02T00:30:09.072Z,72.10
2023-10-02T00:32:42.230Z,72.32
2023-10-02T00:35:14.071Z,72.51
2023-10-02T00:37:55.142Z,72.45
2023-10-02T00:40:28.527Z,72.18
2023-10-02T00:43:00.084Z,72.58
2023-10-02T00:45:42.969Z,72.46
2023-10-02T00:48:26.642Z,72.89
2023-10-02T00:51:00.235Z,72.90
2023-10-02T00:53:43.268Z,73.27
2023-10-02T00:56:25.632Z,72.97
2023-10-02T00:58:57.392Z,72.83
2023-10-02T01:01:33.841Z,72.78
2023-10-02T01:04:13.569Z,73.19
2023-10-02T01:07:04.834Z,72.55
2023-10-02T01:09:35.521Z,72.74
2023-10-02T01:12:04.806Z,72.96
2023-10-02T01:15:08.016Z,73.06
2023-10-02T01:17:39.030Z,73.12
2023-10-02T01:20:35.124Z,73.23
2023-10-02T01:23:21.224Z,73.41
2023-10-02T01:25:51.038Z,73.25
2023-10-02T01:28:26.538Z,73.62
2023-10-02T01:30:56.728Z,73.18
2023-10-02T01:33:28.177Z,73.16
2023-10-02T01:36:00.686Z,73.22
2023-10-02T01:38:35.344Z,72.70
2023-10-02T01:41:11.544Z,72.94
2023-10-02T01:43:45.735Z,72.63
2023-10-02T01:46:23.793Z,72.77
2023-10-02T01:48:52.589Z,72.84
2023-10-02T01:51:29.649Z,72.82
2023-10-02T01:54:05.584Z,73.38
2023-10-02T01:56:36.013Z,73.57
2023-10-02T01:59:15.987Z,73.08
2023-10-02T02:01:56.592Z,72.95
2023-10-02T02:04:34.462Z,72.94
2023-10-02T02:07:03.495Z,72.71
2023-10-02T02:09:34.730Z,73.23
2023-10-02T02:12:09.961Z,73.32
2023-10-02T02:14:53.253Z,73.58
2023-10-02T02:17:26.683Z,73.70
2023-10-02T02:20:01.165Z,73.63
2023-10-02T02:22:33.999Z,74.02
2023-10-02T02:25:05.098Z,73.75
2023-10-02T02:27:33.644Z,73.78
2023-10-02T02:30:12.032Z,73.96
2023-10-02T02:33:01.864Z,74.07
2023-10-02T02:35:30.072Z,73.71
2023-10-02T02:37:58.408Z,73.90
2023-10-02T02:40:27.516Z,74.42
2023-10-02T02:42:57.852Z,74.34
2023-10-02T02:45:33.170Z,74.39
2023-10-02T02:48:07.895Z,74.64
2023-10-02T02:50:45.142Z,74.15
2023-10-02T02:53:24.569Z,74.34
2023-10-02T02:56:31.890Z,74.21
2023-10-02T02:59:03.831Z,74.61
2023-10-02T03:01:32.174Z,74.43
2023-10-02T03:04:12.844Z,74.67
2023-10-02T03:06:43.520Z,74.79
2023-10-02T03:09:11.681Z,75.18
2023-10-02T03:11:41.370Z,75.30
2023-10-02T03:14:16.324Z,75.25
2023-10-02T03:16:47.838Z,74.71
2023-10-02T03:19:18.071Z,75.31
2023-10-02T03:21:48.884Z,74.71
2023-10-02T03:24:20.898Z,75.13
2023-10-02T03:26:56.709Z,74.60
2023-10-02T03:29:24.883Z,74.47
2023-10-02T03:31:54.389Z,75.37
2023-10-02T03:34:35.809Z,74.68
2023-10-02T03:37:13.735Z,75.05
2023-10-02T03:39:56.793Z,75.23
2023-10-02T03:42:26.930Z,75.22
2023-10-02T03:44:59.490Z,75.13
2023-10-02T03:47:32.434Z,75.76
2023-10-02T03:50:02.691Z,75.53
2023-10-02T03:52:38.737Z,75.35
2023-10-02T03:55:18.889Z,75.67
2023-10-02T03:57:57.027Z,75.51
2023-10-02T04:00:28.928Z,75.37
2023-10-02T04:02:59.321Z,75.16
2023-10-02T04:05:35.484Z,75.81
2023-10-02T04:08:40.351Z,75.79
2023-10-02T04:11:11.086Z,75.97
2023-10-02T04:13:47.020Z,76.23
2023-10-02T04:16:30.069Z,76.78
2023-10-02T04:19:02.387Z,76.12
2023-10-02T04:21:35.006Z,76.34
2023-10-02T04:24:10.679Z,76.08
2023-10-02T04:26:43.242Z,76.03
2023-10-02T04:29:16.781Z,76.17
2023-10-02T04:31:46.759Z,75.91
2023-10-02T04:34:24.256Z,76.06
2023-10-02T04:36:55.189Z,76.67
2023-10-02T04:39:32.602Z,76.30
2023-10-02T04:42:23.107Z,76.26
2023-10-02T04:44:58.125Z,76.03
2023-10-02T04:47:28.484Z,75.43
2023-10-02T04:50:08.296Z,75.61
2023-10-02T04:53:05.047Z,75.78
2023-10-02T04:55:43.574Z,75.45
2023-10-02T04:58:20.234Z,75.80
2023-10-02T05:01:06.619Z,75.29
2023-10-02T05:03:39.610Z,75.66
2023-10-02T05:06:07.979Z,75.51
2023-10-02T05:09:03.432Z,75.59
2023-10-02T05:11:53.809Z,75.96
2023-10-02T05:14:44.023Z,76.12
2023-10-02T05:17:35.783Z,75.80
2023-10-02T05:20:05.901Z,76.13
2023-10-02T05:22:38.124Z,76.05
2023-10-02T05:25:10.706Z,76.25
2023-10-02T05:27:41.779Z,76.62
2023-10-02T05:30:14.311Z,76.24
2023-10-02T05:32:45.429Z,75.98
2023-10-02T05:35:13.692Z,76.55
2023-10-02T05:37:43.640Z,76.10
2023-10-02T05:40:22.622Z,76.41
2023-10-02T05:43:02.892Z,75.51
2023-10-02T05:45:48.818Z,75.71
2023-10-02T05:48:28.496Z,75.66
2023-10-02T05:50:59.329Z,75.89
2023-10-02T05:53:33.826Z,75.57
2023-10-02T05:56:11.391Z,75.17
2023-10-02T05:58:50.726Z,75.40
2023-10-02T06:01:37.207Z,75.49
2023-10-02T06:04:06.763Z,75.43
2023-10-02T06:06:38.292Z,75.36
2023-10-02T06:09:17.847Z,75.58
2023-10-02T06:12:03.640Z,75.18
2023-10-02T06:14:40.207Z,75.51
2023-10-02T06:17:16.254Z,75.48
2023-10-02T06:19:45.912Z,75.65
2023-10-02T06:22:14.801Z,75.49
2023-10-02T06:24:47.284Z,75.57
2023-10-02T06:27:17.025Z,75.72
2023-10-02T06:29:48.306Z,75.35
2023-10-02T06:32:21.213Z,75.19
2023-10-02T06:34:59.296Z,75.11
2023-10-02T06:37:34.505Z,75.21
2023-10-02T06:40:16.120Z,75.40
2023-10-02T06:42:51.609Z,74.86
2023-10-02T06:45:22.394Z,75.05
2023-10-02T06:47:54.004Z,74.93
2023-10-02T06:50:25.631Z,75.39
2023-10-02T06:53:00.747Z,74.62
2023-10-02T06:55:36.068Z,75.20
2023-10-02T06:58:08.962Z,75.04
2023-10-02T07:00:57.367Z,74.53
2023-10-02T07:03:26.602Z,74.55
2023-10-02T07:05:55.660Z,74.67
2023-10-02T07:08:31.775Z,74.40
2023-10-02T07:11:00.133Z,74.67
2023-10-02T07:13:28.382Z,74.72
2023-10-02T07:16:01.347Z,74.57
2023-10-02T07:18:38.476Z,74.64
2023-10-02T07:21:11.147Z,74.43
2023-10-02T07:23:39.719Z,74.62
2023-10-02T07:26:16.494Z,74.22
2023-10-02T07:28:54.792Z,74.61
2023-10-02T07:31:24.289Z,74.36
2023-10-02T07:33:57.049Z,74.38
2023-10-02T07:36:28.495Z,74.22
2023-10-02T07:38:58.054Z,74.11
2023-10-02T07:41:33.098Z,73.90
2023-10-02T07:44:10.374Z,73.93
2023-10-02T07:46:39.526Z,73.81
2023-10-02T07:49:11.479Z,73.67
2023-10-02T07:51:43.768Z,73.60
2023-10-02T07:54:14.933Z,73.88
2023-10-02T07:56:48.900Z,73.61
2023-10-02T07:59:19.971Z,73.21
2023-10-02T08:01:48.478Z,73.16
2023-10-02T08:04:16.627Z,73.08
2023-10-02T08:06:54.393Z,72.84
2023-10-02T08:09:38.476Z,72.84
2023-10-02T08:12:09.924Z,72.75
2023-10-02T08:14:43.827Z,72.54
2023-10-02T08:17:23.717Z,72.38
2023-10-02T08:19:56.785Z,72.15
2023-10-02T08:22:37.320Z,72.44
2023-10-02T08:25:15.155Z,72.08
2023-10-02T08:27:57.043Z,71.92
2023-10-02T08:30:30.475Z,71.36
2023-10-02T08:33:36.348Z,70.82
2023-10-02T08:36:38.603Z,70.58
2023-10-02T08:39:19.826Z,70.02
2023-10-02T08:41:52.739Z,69.68
2023-10-02T08:44:27.702Z,69.35
2023-10-02T08:46:57.851Z,69.37
2023-10-02T08:49:27.544Z,69.04
2023-10-02T08:51:57.316Z,69.16
2023-10-02T08:54:28.946Z,69.02
2023-10-02T08:57:13.584Z,68.81
2023-10-02T08:59:42.757Z,68.83
2023-10-02T09:02:16.452Z,68.67
2023-10-02T09:04:55.357Z,68.33
2023-10-02T09:07:45.724Z,68.24
2023-10-02T09:10:26.584Z,68.06
2023-10-02T09:13:15.939Z,67.32
2023-10-02T09:15:50.360Z,67.43
2023-10-02T09:18:56.633Z,66.44
2023-10-02T09:21:24.881Z,66.17
2023-10-02T09:23:54.646Z,65.82
2023-10-02T09:26:26.592Z,65.79
2023-10-02T09:29:05.005Z,65.43
2023-10-02T09:31:36.299Z,65.02
2023-10-02T09:34:43.513Z,64.75
2023-10-02T09:37:55.185Z,64.29
2023-10-02T09:40:16.207Z,63.80
2023-10-02T09:42:49.723Z,63.41
2023-10-02T09:45:33.139Z,62.92
2023-10-02T09:48:07.416Z,62.93
2023-10-02T09:50:47.978Z,63.20
2023-10-02T09:53:18.552Z,63.35
2023-10-02T09:56:07.809Z,63.36
2023-10-02T09:58:50.521Z,62.67
2023-10-02T10:01:28.757Z,62.50
2023-10-02T10:03:58.190Z,62.25
2023-10-02T10:06:33.282Z,61.94
2023-10-02T10:09:19.162Z,62.21
2023-10-02T10:12:12.855Z,61.77
2023-10-02T10:14:43.766Z,61.68
2023-10-02T10:17:18.583Z,61.22
2023-10-02T10:19:54.434Z,60.95
2023-10-02T10:22:42.034Z,60.70
2023-10-02T10:25:22.414Z,60.60
2023-10-02T10:27:59.983Z,60.51
2023-10-02T10:30:36.713Z,60.06
2023-10-02T10:33:12.093Z,60.18
2023-10-02T10:35:58.379Z,60.06
2023-10-02T10:38:38.197Z,59.96
2023-10-02T10:41:32.691Z,59.98
2023-10-02T10:44:08.040Z,59.59
2023-10-02T10:46:40.696Z,59.68
2023-10-02T10:49:09.483Z,59.79
2023-10-02T10:51:39.732Z,60.10
2023-10-02T10:54:35.654Z,60.00
2023-10-02T10:57:23.630Z,60.40
2023-10-02T11:00:24.760Z,60.30
2023-10-02T11:03:03.052Z,60.23
2023-10-02T11:05:35.493Z,60.42
2023-10-02T11:08:27.442Z,60.36
2023-10-02T11:11:19.720Z,60.59
2023-10-02T11:13:55.032Z,61.01
2023-10-02T11:16:42.950Z,61.09
2023-10-02T11:19:14.919Z,61.00
2023-10-02T11:22:20.353Z,61.10
2023-10-02T11:25:19.096Z,61.39
2023-10-02T11:27:59.023Z,61.42
2023-10-02T11:30:35.118Z,61.16
2023-10-02T11:33:07.162Z,61.39
2023-10-02T11:35:40.692Z,61.39
2023-10-02T11:38:11.457Z,61.88
2023-10-02T11:40:44.765Z,61.58
2023-10-02T11:43:21.236Z,61.50
2023-10-02T11:45:49.580Z,61.59
2023-10-02T11:48:17.945Z,61.72
2023-10-02T11:50:48.297Z,62.08
2023-10-02T11:53:16.900Z,62.14
2023-10-02T11:55:45.877Z,62.34
2023-10-02T11:58:14.019Z,62.68
2023-10-02T12:00:44.669Z,62.46
2023-10-02T12:03:15.671Z,62.47
2023-10-02T12:05:45.099Z,62.77
2023-10-02T12:08:13.127Z,62.79
2023-10-02T12:10:42.401Z,62.93
2023-10-02T12:13:10.495Z,63.13
2023-10-02T12:15:39.570Z,63.18
2023-10-02T12:18:10.632Z,63.42
2023-10-02T12:20:41.041Z,63.42
2023-10-02T12:23:10.935Z,63.75
2023-10-02T12:25:39.849Z,63.90
2023-10-02T12:28:07.823Z,64.24
2023-10-02T12:30:36.221Z,64.52
2023-10-02T12:33:19.209Z,64.68
2023-10-02T12:35:47.443Z,64.69
2023-10-02T12:38:15.578Z,64.70
2023-10-02T12:40:43.996Z,64.58
2023-10-02T12:43:12.003Z,64.55
2023-10-02T12:45:41.354Z,64.22
2023-10-02T12:48:09.575Z,64.30
2023-10-02T12:50:43.264Z,64.18
2023-10-02T12:53:24.626Z,64.11
2023-10-02T12:55:53.831Z,63.91
2023-10-02T12:58:21.974Z,63.69
2023-10-02T13:00:51.845Z,63.58
2023-10-02T13:03:19.967Z,63.57
2023-10-02T13:05:48.354Z,63.76
2023-10-02T13:08:18.996Z,63.47
2023-10-02T13:10:48.743Z,63.75
2023-10-02T13:13:17.574Z,63.54
2023-10-02T13:15:45.861Z,63.53
2023-10-02T13:18:15.082Z,63.66
2023-10-02T13:20:46.013Z,63.54
2023-10-02T13:23:14.451Z,63.71
2023-10-02T13:25:48.224Z,63.78
2023-10-02T13:28:21.599Z,63.78
2023-10-02T13:30:49.971Z,63.83
2023-10-02T13:33:21.145Z,63.98
2023-10-02T13:35:58.900Z,64.22
2023-10-02T13:38:28.748Z,64.25
2023-10-02T13:41:07.569Z,64.35
2023-10-02T13:43:43.695Z,64.39
2023-10-02T13:46:16.261Z,64.58
2023-10-02T13:48:45.822Z,64.51
2023-10-02T13:51:20.100Z,64.67
2023-10-02T13:53:50.962Z,64.82
2023-10-02T13:56:26.734Z,64.61
2023-10-02T13:58:58.069Z,64.83
2023-10-02T14:01:26.925Z,64.95
2023-10-02T14:03:57.197Z,64.98
2023-10-02T14:06:30.828Z,65.11
2023-10-02T14:09:00.882Z,65.17
2023-10-02T14:11:29.954Z,65.21
2023-10-02T14:13:59.690Z,65.30
2023-10-02T14:16:29.185Z,65.37
2023-10-02T14:18:58.172Z,65.60
2023-10-02T14:21:30.895Z,65.80
2023-10-02T14:24:00.664Z,65.84
2023-10-02T14:26:29.115Z,65.78
2023-10-02T14:28:59.134Z,66.10
2023-10-02T14:31:33.883Z,66.21
2023-10-02T14:34:08.242Z,66.18
2023-10-02T14:36:37.305Z,66.27
2023-10-02T14:39:07.482Z,66.30
2023-10-02T14:41:39.343Z,66.24
2023-10-02T14:44:07.908Z,66.07
2023-10-02T14:46:41.189Z,66.20
2023-10-02T14:49:09.749Z,66.16
2023-10-02T14:51:38.356Z,66.23
2023-10-02T14:54:09.248Z,66.52
2023-10-02T14:56:51.530Z,66.41
2023-10-02T14:59:25.197Z,66.25
2023-10-02T15:01:57.398Z,66.45
2023-10-02T15:04:26.667Z,66.31
2023-10-02T15:06:57.179Z,66.40
2023-10-02T15:09:25.417Z,66.49
2023-10-02T15:11:53.821Z,66.58
2023-10-02T15:14:22.397Z,66.96
2023-10-02T15:16:50.616Z,66.83
2023-10-02T15:19:21.632Z,66.76
2023-10-02T15:21:52.737Z,67.26
2023-10-02T15:24:20.896Z,67.08
2023-10-02T15:26:49.526Z,67.19
2023-10-02T15:29:17.848Z,67.08
2023-10-02T15:31:47.062Z,67.41
2023-10-02T15:34:17.543Z,67.47
2023-10-02T15:36:45.990Z,67.47
2023-10-02T15:39:22.282Z,67.78
2023-10-02T15:41:50.452Z,67.72
2023-10-02T15:44:18.598Z,67.77
2023-10-02T15:46:47.520Z,67.63
2023-10-02T15:49:15.746Z,67.93
2023-10-02T15:51:44.171Z,67.84
2023-10-02T15:54:12.175Z,68.28
2023-10-02T15:56:40.636Z,68.01
2023-10-02T15:59:09.592Z,68.19
2023-10-02T16:01:38.210Z,68.25
2023-10-02T16:04:06.666Z,68.34
2023-10-02T16:06:42.623Z,68.46
2023-10-02T16:09:17.027Z,68.19
2023-10-02T16:11:45.114Z,68.52
2023-10-02T16:14:14.777Z,68.47
2023-10-02T16:16:43.016Z,68.63
2023-10-02T16:19:11.215Z,68.59
2023-10-02T16:21:42.099Z,68.65
2023-10-02T16:24:11.446Z,68.66
2023-10-02T16:26:39.956Z,68.97
2023-10-02T16:29:13.888Z,69.05
2023-10-02T16:31:44.419Z,69.03
2023-10-02T16:34:13.179Z,69.13
2023-10-02T16:36:41.457Z,69.14
2023-10-02T16:39:15.801Z,69.09
2023-10-02T16:41:49.900Z,69.22
2023-10-02T16:44:18.018Z,69.32
2023-10-02T16:46:46.912Z,69.54
2023-10-02T16:49:21.408Z,69.34
2023-10-02T16:51:49.526Z,69.75
2023-10-02T16:54:17.409Z,69.87
2023-10-02T16:56:46.035Z,69.93
2023-10-02T16:59:16.812Z,69.60
2023-10-02T17:01:46.022Z,69.73
2023-10-02T17:04:14.228Z,69.93
2023-10-02T17:06:42.737Z,70.10
2023-10-02T17:09:11.186Z,69.87
2023-10-02T17:11:42.489Z,70.04
2023-10-02T17:14:14.582Z,69.94
2023-10-02T17:16:43.094Z,69.87
2023-10-02T17:19:11.734Z,69.97
2023-10-02T17:21:42.721Z,70.04
2023-10-02T17:24:10.898Z,69.93
2023-10-02T17:26:39.253Z,70.45
2023-10-02T17:29:07.727Z,70.44
2023-10-02T17:31:36.828Z,70.16
2023-10-02T17:34:05.116Z,70.21
2023-10-02T17:36:33.601Z,70.25
2023-10-02T17:39:08.664Z,70.55
2023-10-02T17:41:44.170Z,70.12
2023-10-02T17:44:21.502Z,70.45
2023-10-02T17:46:50.117Z,70.57
2023-10-02T17:49:25.913Z,70.68
2023-10-02T17:51:54.695Z,70.24
2023-10-02T17:54:23.114Z,70.54
2023-10-02T17:56:51.900Z,70.74
2023-10-02T17:59:21.515Z,70.86
2023-10-02T18:01:50.292Z,71.12
2023-10-02T18:04:38.447Z,70.74
2023-10-02T18:07:06.658Z,70.83
2023-10-02T18:09:38.884Z,70.87
2023-10-02T18:12:07.416Z,71.30
2023-10-02T18:14:35.908Z,71.13
2023-10-02T18:17:08.132Z,71.36
2023-10-02T18:19:37.077Z,71.37
2023-10-02T18:22:06.880Z,71.40
2023-10-02T18:24:35.111Z,71.49
2023-10-02T18:27:03.492Z,71.21
2023-10-02T18:29:32.290Z,71.37
2023-10-02T18:32:02.647Z,71.59
2023-10-02T18:34:43.042Z,71.63
2023-10-02T18:37:12.880Z,71.55
2023-10-02T18:39:41.647Z,71.43
2023-10-02T18:42:10.512Z,71.69
2023-10-02T18:44:39.441Z,71.80
2023-10-02T18:47:08.330Z,71.63
2023-10-02T18:49:37.239Z,71.78
2023-10-02T18:52:09.826Z,71.68
2023-10-02T18:54:40.348Z,71.53
2023-10-02T18:57:08.712Z,71.39
2023-10-02T18:59:39.987Z,71.57
2023-10-02T19:02:09.490Z,71.35
2023-10-02T19:04:39.154Z,71.66
2023-10-02T19:07:07.587Z,71.03
2023-10-02T19:09:36.356Z,71.58
2023-10-02T19:12:05.530Z,71.58
2023-10-02T19:14:34.973Z,71.66
2023-10-02T19:17:05.074Z,71.91
2023-10-02T19:19:33.252Z,71.93
2023-10-02T19:22:01.172Z,71.95
2023-10-02T19:24:34.803Z,72.06
2023-10-02T19:27:02.916Z,72.16
2023-10-02T19:29:32.772Z,71.86
2023-10-02T19:32:01.048Z,71.95
2023-10-02T19:34:29.310Z,72.20
2023-10-02T19:36:57.239Z,72.04
2023-10-02T19:39:25.276Z,71.93
2023-10-02T19:41:53.538Z,72.28
2023-10-02T19:44:21.563Z,72.19
2023-10-02T19:46:49.740Z,72.11
2023-10-02T19:49:17.748Z,71.82
2023-10-02T19:51:45.685Z,72.15
2023-10-02T19:54:13.893Z,72.17
2023-10-02T19:56:42.042Z,72.05
2023-10-02T19:59:10.458Z,72.32
2023-10-02T20:01:38.592Z,72.23
2023-10-02T20:04:09.145Z,72.20
2023-10-02T20:06:39.543Z,72.56
2023-10-02T20:09:09.511Z,72.52
2023-10-02T20:11:37.432Z,72.46
2023-10-02T20:14:07.037Z,72.38
2023-10-02T20:16:43.651Z,72.30
2023-10-02T20:19:13.399Z,72.47
2023-10-02T20:21:43.414Z,72.48
2023-10-02T20:24:11.481Z,72.83
2023-10-02T20:26:40.264Z,72.59
2023-10-02T20:29:08.848Z,72.91
2023-10-02T20:31:36.905Z,72.80
2023-10-02T20:34:05.391Z,72.67
2023-10-02T20:36:33.372Z,72.88
2023-10-02T20:39:16.517Z,72.93
2023-10-02T20:41:46.210Z,72.82
2023-10-02T20:44:14.672Z,72.84
2023-10-02T20:46:44.202Z,72.79
2023-10-02T20:49:12.456Z,73.18
2023-10-02T20:51:45.090Z,72.99
2023-10-02T20:54:16.356Z,72.92
2023-10-02T20:56:44.248Z,73.29
2023-10-02T20:59:19.096Z,73.17
2023-10-02T21:01:50.473Z,73.21
2023-10-02T21:04:19.432Z,73.41
2023-10-02T21:06:48.333Z,73.48
2023-10-02T21:09:20.002Z,73.22
2023-10-02T21:11:48.727Z,73.29
2023-10-02T21:14:18.210Z,73.40
2023-10-02T21:16:49.385Z,73.37
2023-10-02T21:19:17.578Z,73.51
2023-10-02T21:21:45.703Z,73.58
2023-10-02T21:24:13.611Z,73.36
2023-10-02T21:26:41.626Z,73.79
2023-10-02T21:29:09.658Z,73.71
2023-10-02T21:31:37.794Z,73.48
2023-10-02T21:34:05.793Z,74.07
2023-10-02T21:36:39.553Z,73.84
2023-10-02T21:39:16.035Z,73.98
2023-10-02T21:41:46.169Z,74.08
2023-10-02T21:44:14.646Z,74.05
2023-10-02T21:46:42.591Z,73.87
2023-10-02T21:49:12.488Z,73.87
2023-10-02T21:51:42.156Z,73.77
2023-10-02T21:54:11.067Z,74.02
2023-10-02T21:56:39.031Z,74.00
2023-10-02T21:59:06.920Z,74.04
2023-10-02T22:01:34.829Z,74.23
2023-10-02T22:04:02.924Z,73.97
2023-10-02T22:06:31.032Z,74.19
2023-10-02T22:08:59.109Z,74.16
2023-10-02T22:11:27.039Z,74.30
2023-10-02T22:13:55.147Z,74.37
2023-10-02T22:16:26.174Z,74.24
2023-10-02T22:18:54.894Z,74.49
2023-10-02T22:21:24.719Z,74.56
2023-10-02T22:23:54.316Z,74.71
2023-10-02T22:26:22.237Z,74.62
2023-10-02T22:28:50.635Z,74.91
2023-10-02T22:31:21.828Z,74.61
2023-10-02T22:33:50.129Z,74.67
2023-10-02T22:36:18.268Z,74.87
2023-10-02T22:38:46.353Z,74.95
2023-10-02T22:41:14.753Z,74.62
2023-10-02T22:43:42.927Z,74.94
2023-10-02T22:46:12.836Z,74.88
2023-10-02T22:48:40.871Z,75.07
2023-10-02T22:51:09.209Z,75.03
2023-10-02T22:53:38.463Z,75.27
2023-10-02T22:56:06.529Z,75.25
2023-10-02T22:58:34.522Z,75.48
2023-10-02T23:01:07.730Z,75.27
2023-10-02T23:03:38.929Z,75.61
2023-10-02T23:06:09.834Z,75.54
2023-10-02T23:08:38.388Z,75.55
2023-10-02T23:11:07.952Z,75.86
2023-10-02T23:13:36.773Z,75.67
2023-10-02T23:16:04.618Z,75.84
2023-10-02T23:18:36.614Z,75.88
2023-10-02T23:21:04.994Z,75.96
2023-10-02T23:23:33.904Z,75.97
2023-10-02T23:26:03.152Z,75.87
2023-10-02T23:28:31.049Z,76.07
2023-10-02T23:31:04.098Z,76.04
2023-10-02T23:33:34.485Z,76.03
2023-10-02T23:36:03.068Z,76.07
2023-10-02T23:38:32.707Z,76.31
2023-10-02T23:41:00.807Z,76.38
2023-10-02T23:43:28.962Z,76.44
2023-10-02T23:45:58.685Z,76.52
2023-10-02T23:48:31.005Z,76.39
2023-10-02T23:51:05.131Z,76.56
2023-10-02T23:53:39.404Z,76.43
2023-10-02T23:56:09.628Z,76.23
2023-10-02T23:58:40.343Z,76.48
